Terminal Aerodrome Forecast
Issued by NWS Twin Cities, MN

Home | Current Version | Previous Version | Graphics & Text | Print | Product List | Glossary On
Versions: 1 2 3 4 5 6 7 8 9 10 11 12 13 14 15 16 17 18 19 20 21 22 23 24 25 26 27 28 29 30
000
FTUS43 KMPX 191100
TAFMSP
TAF
KMSP 191121Z 1912/2018 14005KT P6SM SCT015 OVC040
      TEMPO 1912/1914 5SM -SN BR OVC030
     FM191400 15005KT P6SM SCT015 OVC025
     FM191600 15006KT P6SM OVC017
     FM200300 16006KT 5SM BR BKN008 OVC015=

USA.gov is the U.S. government's official web portal to all federal, state and local government web resources and services.